sensor_id;sensor_type;location;lat;lon;timestamp;temperature;humidity
17348;DHT22;8791;50.876;4.342;2024-01-06T00:01:41;8.00;99.90
17348;DHT22;8791;50.876;4.342;2024-01-06T00:04:08;8.10;99.90
17348;DHT22;8791;50.876;4.342;2024-01-06T00:06:35;8.10;99.90
17348;DHT22;8791;50.876;4.342;2024-01-06T00:09:02;8.10;99.90
17348;DHT22;8791;50.876;4.342;2024-01-06T00:11:29;8.00;99.90
17348;DHT22;8791;50.876;4.342;2024-01-06T00:13:57;8.00;99.90
17348;DHT22;8791;50.876;4.342;2024-01-06T00:16:24;7.90;99.90
17348;DHT22;8791;50.876;4.342;2024-01-06T00:18:51;7.90;99.90
17348;DHT22;8791;50.876;4.342;2024-01-06T00:21:18;8.00;99.90
17348;DHT22;8791;50.876;4.342;2024-01-06T00:23:45;8.00;99.90
17348;DHT22;8791;50.876;4.342;2024-01-06T00:26:12;8.00;99.90
17348;DHT22;8791;50.876;4.342;2024-01-06T00:28:39;8.10;99.90
17348;DHT22;8791;50.876;4.342;2024-01-06T00:31:08;8.10;99.90
17348;DHT22;8791;50.876;4.342;2024-01-06T00:33:34;8.10;99.90
17348;DHT22;8791;50.876;4.342;2024-01-06T00:36:01;8.10;99.90
17348;DHT22;8791;50.876;4.342;2024-01-06T00:38:28;8.20;99.90
17348;DHT22;8791;50.876;4.342;2024-01-06T00:40:55;8.20;99.90
17348;DHT22;8791;50.876;4.342;2024-01-06T00:43:22;8.10;99.90
17348;DHT22;8791;50.876;4.342;2024-01-06T00:45:49;8.10;99.90
17348;DHT22;8791;50.876;4.342;2024-01-06T00:48:17;8.10;99.90
17348;DHT22;8791;50.876;4.342;2024-01-06T00:50:44;8.20;99.90
17348;DHT22;8791;50.876;4.342;2024-01-06T00:53:11;8.00;99.90
17348;DHT22;8791;50.876;4.342;2024-01-06T00:55:38;7.90;99.90
17348;DHT22;8791;50.876;4.342;2024-01-06T00:58:05;7.90;99.90
17348;DHT22;8791;50.876;4.342;2024-01-06T01:00:34;7.90;99.90
17348;DHT22;8791;50.876;4.342;2024-01-06T01:03:01;7.90;99.90
17348;DHT22;8791;50.876;4.342;2024-01-06T01:05:29;7.90;99.90
17348;DHT22;8791;50.876;4.342;2024-01-06T01:07:56;7.90;99.90
17348;DHT22;8791;50.876;4.342;2024-01-06T01:10:23;8.00;99.90
17348;DHT22;8791;50.876;4.342;2024-01-06T01:12:50;8.00;99.90
17348;DHT22;8791;50.876;4.342;2024-01-06T01:15:17;7.90;99.90
17348;DHT22;8791;50.876;4.342;2024-01-06T01:17:44;7.90;99.90
17348;DHT22;8791;50.876;4.342;2024-01-06T01:20:11;7.80;99.90
17348;DHT22;8791;50.876;4.342;2024-01-06T01:22:39;7.90;99.90
17348;DHT22;8791;50.876;4.342;2024-01-06T01:25:07;7.90;99.90
17348;DHT22;8791;50.876;4.342;2024-01-06T01:27:34;7.90;99.90
17348;DHT22;8791;50.876;4.342;2024-01-06T01:30:01;7.90;99.90
17348;DHT22;8791;50.876;4.342;2024-01-06T01:32:28;7.90;99.90
17348;DHT22;8791;50.876;4.342;2024-01-06T01:34:54;7.80;99.90
17348;DHT22;8791;50.876;4.342;2024-01-06T01:37:21;7.80;99.90
17348;DHT22;8791;50.876;4.342;2024-01-06T01:39:50;7.80;99.90
17348;DHT22;8791;50.876;4.342;2024-01-06T01:42:17;7.70;99.90
17348;DHT22;8791;50.876;4.342;2024-01-06T01:44:43;7.70;99.90
17348;DHT22;8791;50.876;4.342;2024-01-06T01:47:11;7.80;99.90
17348;DHT22;8791;50.876;4.342;2024-01-06T01:49:40;7.70;99.90
17348;DHT22;8791;50.876;4.342;2024-01-06T01:52:07;7.80;99.90
17348;DHT22;8791;50.876;4.342;2024-01-06T01:54:34;7.80;99.90
17348;DHT22;8791;50.876;4.342;2024-01-06T01:57:03;7.80;99.90
17348;DHT22;8791;50.876;4.342;2024-01-06T01:59:30;7.70;99.90
17348;DHT22;8791;50.876;4.342;2024-01-06T02:01:57;7.70;99.90
17348;DHT22;8791;50.876;4.342;2024-01-06T02:04:24;7.80;99.90
17348;DHT22;8791;50.876;4.342;2024-01-06T02:06:51;7.80;99.90
17348;DHT22;8791;50.876;4.342;2024-01-06T02:09:18;7.80;99.90
17348;DHT22;8791;50.876;4.342;2024-01-06T02:11:44;7.80;99.90
17348;DHT22;8791;50.876;4.342;2024-01-06T02:14:13;7.80;99.90
17348;DHT22;8791;50.876;4.342;2024-01-06T02:16:40;7.80;99.90
17348;DHT22;8791;50.876;4.342;2024-01-06T02:19:10;7.90;99.90
17348;DHT22;8791;50.876;4.342;2024-01-06T02:21:41;7.80;99.90
17348;DHT22;8791;50.876;4.342;2024-01-06T02:24:10;7.90;99.90
17348;DHT22;8791;50.876;4.342;2024-01-06T02:26:37;7.90;99.90
17348;DHT22;8791;50.876;4.342;2024-01-06T02:29:04;7.90;99.90
17348;DHT22;8791;50.876;4.342;2024-01-06T02:31:30;7.90;99.90
17348;DHT22;8791;50.876;4.342;2024-01-06T02:33:57;8.00;99.90
17348;DHT22;8791;50.876;4.342;2024-01-06T02:36:24;7.90;99.90
17348;DHT22;8791;50.876;4.342;2024-01-06T02:38:51;7.90;99.90
17348;DHT22;8791;50.876;4.342;2024-01-06T02:41:19;8.00;99.90
17348;DHT22;8791;50.876;4.342;2024-01-06T02:43:47;7.90;99.90
17348;DHT22;8791;50.876;4.342;2024-01-06T02:46:13;7.90;99.90
17348;DHT22;8791;50.876;4.342;2024-01-06T02:48:40;8.00;99.90
17348;DHT22;8791;50.876;4.342;2024-01-06T02:51:07;8.00;99.90
17348;DHT22;8791;50.876;4.342;2024-01-06T02:53:34;7.90;99.90
17348;DHT22;8791;50.876;4.342;2024-01-06T02:56:01;7.90;99.90
17348;DHT22;8791;50.876;4.342;2024-01-06T02:58:29;7.90;99.90
17348;DHT22;8791;50.876;4.342;2024-01-06T03:00:56;7.90;99.90
17348;DHT22;8791;50.876;4.342;2024-01-06T03:03:24;8.00;99.90
17348;DHT22;8791;50.876;4.342;2024-01-06T03:05:51;7.90;99.90
17348;DHT22;8791;50.876;4.342;2024-01-06T03:08:18;7.90;99.90
17348;DHT22;8791;50.876;4.342;2024-01-06T03:10:45;7.90;99.90
17348;DHT22;8791;50.876;4.342;2024-01-06T03:13:12;7.90;99.90
17348;DHT22;8791;50.876;4.342;2024-01-06T03:15:40;7.80;99.90
17348;DHT22;8791;50.876;4.342;2024-01-06T03:18:07;7.80;99.90
17348;DHT22;8791;50.876;4.342;2024-01-06T03:20:34;7.90;99.90
17348;DHT22;8791;50.876;4.342;2024-01-06T03:23:01;7.90;99.90
17348;DHT22;8791;50.876;4.342;2024-01-06T03:25:28;7.90;99.90
17348;DHT22;8791;50.876;4.342;2024-01-06T03:27:55;7.90;99.90
17348;DHT22;8791;50.876;4.342;2024-01-06T03:30:22;8.00;99.90
17348;DHT22;8791;50.876;4.342;2024-01-06T03:32:50;8.00;99.90
17348;DHT22;8791;50.876;4.342;2024-01-06T03:35:17;8.00;99.90
17348;DHT22;8791;50.876;4.342;2024-01-06T03:37:44;7.90;99.90
17348;DHT22;8791;50.876;4.342;2024-01-06T03:40:12;8.00;99.90
17348;DHT22;8791;50.876;4.342;2024-01-06T03:42:40;7.90;99.90
17348;DHT22;8791;50.876;4.342;2024-01-06T03:45:07;7.80;99.90
17348;DHT22;8791;50.876;4.342;2024-01-06T03:47:35;7.80;99.90
17348;DHT22;8791;50.876;4.342;2024-01-06T03:50:04;7.60;99.90
17348;DHT22;8791;50.876;4.342;2024-01-06T03:52:31;7.60;99.90
17348;DHT22;8791;50.876;4.342;2024-01-06T03:54:58;7.60;99.90
17348;DHT22;8791;50.876;4.342;2024-01-06T03:57:26;7.50;99.90
17348;DHT22;8791;50.876;4.342;2024-01-06T03:59:53;7.60;99.90
17348;DHT22;8791;50.876;4.342;2024-01-06T04:02:19;7.60;99.90
17348;DHT22;8791;50.876;4.342;2024-01-06T04:04:46;7.60;99.90
17348;DHT22;8791;50.876;4.342;2024-01-06T04:07:15;7.60;99.90
17348;DHT22;8791;50.876;4.342;2024-01-06T04:09:42;7.60;99.90
17348;DHT22;8791;50.876;4.342;2024-01-06T04:12:10;7.90;99.90
17348;DHT22;8791;50.876;4.342;2024-01-06T04:14:37;7.70;99.90
17348;DHT22;8791;50.876;4.342;2024-01-06T04:17:03;7.60;99.90
17348;DHT22;8791;50.876;4.342;2024-01-06T04:19:30;7.50;99.90
17348;DHT22;8791;50.876;4.342;2024-01-06T04:21:57;7.60;99.90
17348;DHT22;8791;50.876;4.342;2024-01-06T04:24:27;7.60;99.90
17348;DHT22;8791;50.876;4.342;2024-01-06T04:26:56;7.70;99.90
17348;DHT22;8791;50.876;4.342;2024-01-06T04:29:23;7.60;99.90
17348;DHT22;8791;50.876;4.342;2024-01-06T04:31:50;7.50;99.90
17348;DHT22;8791;50.876;4.342;2024-01-06T04:34:17;7.50;99.90
17348;DHT22;8791;50.876;4.342;2024-01-06T04:36:44;7.50;99.90
17348;DHT22;8791;50.876;4.342;2024-01-06T04:39:11;7.50;99.90
17348;DHT22;8791;50.876;4.342;2024-01-06T04:41:40;7.40;99.90
17348;DHT22;8791;50.876;4.342;2024-01-06T04:44:07;7.40;99.90
17348;DHT22;8791;50.876;4.342;2024-01-06T04:46:34;7.40;99.90
17348;DHT22;8791;50.876;4.342;2024-01-06T04:49:01;7.30;99.90
17348;DHT22;8791;50.876;4.342;2024-01-06T04:51:28;7.40;99.90
17348;DHT22;8791;50.876;4.342;2024-01-06T04:53:55;7.30;99.90
17348;DHT22;8791;50.876;4.342;2024-01-06T04:56:22;7.40;99.90
17348;DHT22;8791;50.876;4.342;2024-01-06T04:58:50;7.40;99.90
17348;DHT22;8791;50.876;4.342;2024-01-06T05:01:17;7.50;99.90
17348;DHT22;8791;50.876;4.342;2024-01-06T05:03:44;7.50;99.90
17348;DHT22;8791;50.876;4.342;2024-01-06T05:06:12;7.50;99.90
17348;DHT22;8791;50.876;4.342;2024-01-06T05:08:39;7.50;99.90
17348;DHT22;8791;50.876;4.342;2024-01-06T05:11:10;7.50;99.90
17348;DHT22;8791;50.876;4.342;2024-01-06T05:13:37;7.70;99.90
17348;DHT22;8791;50.876;4.342;2024-01-06T05:16:06;7.90;99.90
17348;DHT22;8791;50.876;4.342;2024-01-06T05:18:33;7.90;99.90
17348;DHT22;8791;50.876;4.342;2024-01-06T05:21:01;8.00;99.90
17348;DHT22;8791;50.876;4.342;2024-01-06T05:23:29;8.10;99.90
17348;DHT22;8791;50.876;4.342;2024-01-06T05:25:56;8.20;99.90
17348;DHT22;8791;50.876;4.342;2024-01-06T05:28:22;8.20;99.90
17348;DHT22;8791;50.876;4.342;2024-01-06T05:30:49;8.00;99.90
17348;DHT22;8791;50.876;4.342;2024-01-06T05:33:18;7.80;99.90
17348;DHT22;8791;50.876;4.342;2024-01-06T05:35:45;7.70;99.90
17348;DHT22;8791;50.876;4.342;2024-01-06T05:38:12;7.60;99.90
17348;DHT22;8791;50.876;4.342;2024-01-06T05:40:39;7.50;99.90
17348;DHT22;8791;50.876;4.342;2024-01-06T05:43:06;7.50;99.90
17348;DHT22;8791;50.876;4.342;2024-01-06T05:45:32;7.50;99.90
17348;DHT22;8791;50.876;4.342;2024-01-06T05:47:59;7.60;99.90
17348;DHT22;8791;50.876;4.342;2024-01-06T05:50:28;7.60;99.90
17348;DHT22;8791;50.876;4.342;2024-01-06T05:52:55;7.70;99.90
17348;DHT22;8791;50.876;4.342;2024-01-06T05:55:22;7.60;99.90
17348;DHT22;8791;50.876;4.342;2024-01-06T05:57:49;7.40;99.90
17348;DHT22;8791;50.876;4.342;2024-01-06T06:00:16;7.20;99.90
17348;DHT22;8791;50.876;4.342;2024-01-06T06:02:43;7.20;99.90
17348;DHT22;8791;50.876;4.342;2024-01-06T06:05:10;7.10;99.90
17348;DHT22;8791;50.876;4.342;2024-01-06T06:07:39;7.10;99.90
17348;DHT22;8791;50.876;4.342;2024-01-06T06:10:08;7.20;99.90
17348;DHT22;8791;50.876;4.342;2024-01-06T06:12:35;7.20;99.90
17348;DHT22;8791;50.876;4.342;2024-01-06T06:15:02;7.40;99.90
17348;DHT22;8791;50.876;4.342;2024-01-06T06:17:29;7.50;99.90
17348;DHT22;8791;50.876;4.342;2024-01-06T06:19:56;7.40;99.90
17348;DHT22;8791;50.876;4.342;2024-01-06T06:22:23;7.20;99.90
17348;DHT22;8791;50.876;4.342;2024-01-06T06:24:53;7.00;99.90
17348;DHT22;8791;50.876;4.342;2024-01-06T06:27:20;6.90;99.90
17348;DHT22;8791;50.876;4.342;2024-01-06T06:29:47;6.90;99.90
17348;DHT22;8791;50.876;4.342;2024-01-06T06:32:14;6.90;99.90
17348;DHT22;8791;50.876;4.342;2024-01-06T06:34:41;6.90;99.90
17348;DHT22;8791;50.876;4.342;2024-01-06T06:37:08;6.90;99.90
17348;DHT22;8791;50.876;4.342;2024-01-06T06:39:36;7.00;99.90
17348;DHT22;8791;50.876;4.342;2024-01-06T06:42:04;7.00;99.90
17348;DHT22;8791;50.876;4.342;2024-01-06T06:44:31;6.80;99.90
17348;DHT22;8791;50.876;4.342;2024-01-06T06:46:58;6.80;99.90
17348;DHT22;8791;50.876;4.342;2024-01-06T06:49:25;6.90;99.90
17348;DHT22;8791;50.876;4.342;2024-01-06T06:51:52;6.80;99.90
17348;DHT22;8791;50.876;4.342;2024-01-06T06:54:21;6.80;99.90
17348;DHT22;8791;50.876;4.342;2024-01-06T06:56:48;6.70;99.90
17348;DHT22;8791;50.876;4.342;2024-01-06T06:59:16;6.80;99.90
17348;DHT22;8791;50.876;4.342;2024-01-06T07:01:43;6.70;99.90
17348;DHT22;8791;50.876;4.342;2024-01-06T07:04:10;6.60;99.90
17348;DHT22;8791;50.876;4.342;2024-01-06T07:06:37;6.50;99.90
17348;DHT22;8791;50.876;4.342;2024-01-06T07:09:04;6.30;99.90
17348;DHT22;8791;50.876;4.342;2024-01-06T07:11:31;6.40;99.90
17348;DHT22;8791;50.876;4.342;2024-01-06T07:13:58;6.40;99.90
17348;DHT22;8791;50.876;4.342;2024-01-06T07:16:26;6.30;99.90
17348;DHT22;8791;50.876;4.342;2024-01-06T07:18:53;6.30;99.90
17348;DHT22;8791;50.876;4.342;2024-01-06T07:21:20;6.30;99.90
17348;DHT22;8791;50.876;4.342;2024-01-06T07:23:48;6.30;99.90
17348;DHT22;8791;50.876;4.342;2024-01-06T07:26:15;6.20;99.90
17348;DHT22;8791;50.876;4.342;2024-01-06T07:28:43;6.20;99.90
17348;DHT22;8791;50.876;4.342;2024-01-06T07:31:10;6.20;99.90
17348;DHT22;8791;50.876;4.342;2024-01-06T07:33:39;6.20;99.90
17348;DHT22;8791;50.876;4.342;2024-01-06T07:36:06;6.10;99.90
17348;DHT22;8791;50.876;4.342;2024-01-06T07:38:33;6.00;99.90
17348;DHT22;8791;50.876;4.342;2024-01-06T07:41:00;6.00;99.90
17348;DHT22;8791;50.876;4.342;2024-01-06T07:43:27;6.20;99.90
17348;DHT22;8791;50.876;4.342;2024-01-06T07:45:54;6.20;99.90
17348;DHT22;8791;50.876;4.342;2024-01-06T07:48:21;6.30;99.90
17348;DHT22;8791;50.876;4.342;2024-01-06T07:50:49;6.30;99.90
17348;DHT22;8791;50.876;4.342;2024-01-06T07:53:17;6.40;99.90
17348;DHT22;8791;50.876;4.342;2024-01-06T07:55:44;6.50;99.90
17348;DHT22;8791;50.876;4.342;2024-01-06T07:58:11;6.50;99.90
17348;DHT22;8791;50.876;4.342;2024-01-06T08:00:38;6.80;99.90
17348;DHT22;8791;50.876;4.342;2024-01-06T08:03:05;6.60;99.90
17348;DHT22;8791;50.876;4.342;2024-01-06T08:05:32;6.40;99.90
17348;DHT22;8791;50.876;4.342;2024-01-06T08:08:00;6.30;99.90
17348;DHT22;8791;50.876;4.342;2024-01-06T08:10:28;6.30;99.90
17348;DHT22;8791;50.876;4.342;2024-01-06T08:12:55;6.40;99.90
17348;DHT22;8791;50.876;4.342;2024-01-06T08:15:22;6.50;99.90
17348;DHT22;8791;50.876;4.342;2024-01-06T08:17:49;6.60;99.90
17348;DHT22;8791;50.876;4.342;2024-01-06T08:20:16;6.70;99.90
17348;DHT22;8791;50.876;4.342;2024-01-06T08:22:43;6.70;99.90
17348;DHT22;8791;50.876;4.342;2024-01-06T08:25:11;6.70;99.90
17348;DHT22;8791;50.876;4.342;2024-01-06T08:27:39;6.60;99.90
17348;DHT22;8791;50.876;4.342;2024-01-06T08:30:07;6.40;99.90
17348;DHT22;8791;50.876;4.342;2024-01-06T08:32:34;6.30;99.90
17348;DHT22;8791;50.876;4.342;2024-01-06T08:35:01;6.30;99.90
17348;DHT22;8791;50.876;4.342;2024-01-06T08:37:29;6.20;99.90
17348;DHT22;8791;50.876;4.342;2024-01-06T08:39:56;6.30;99.90
17348;DHT22;8791;50.876;4.342;2024-01-06T08:42:24;6.40;99.90
17348;DHT22;8791;50.876;4.342;2024-01-06T08:44:51;6.30;99.90
17348;DHT22;8791;50.876;4.342;2024-01-06T08:47:18;5.90;99.90
17348;DHT22;8791;50.876;4.342;2024-01-06T08:49:45;5.70;99.90
17348;DHT22;8791;50.876;4.342;2024-01-06T08:52:12;5.70;99.90
17348;DHT22;8791;50.876;4.342;2024-01-06T08:54:39;5.50;99.90
17348;DHT22;8791;50.876;4.342;2024-01-06T08:57:06;5.50;99.90
17348;DHT22;8791;50.876;4.342;2024-01-06T08:59:34;5.60;99.90
17348;DHT22;8791;50.876;4.342;2024-01-06T09:02:02;5.60;99.90
17348;DHT22;8791;50.876;4.342;2024-01-06T09:04:29;5.50;99.90
17348;DHT22;8791;50.876;4.342;2024-01-06T09:06:56;5.50;99.90
17348;DHT22;8791;50.876;4.342;2024-01-06T09:09:23;5.40;99.90
17348;DHT22;8791;50.876;4.342;2024-01-06T09:11:50;5.40;99.90
17348;DHT22;8791;50.876;4.342;2024-01-06T09:14:18;5.50;99.90
17348;DHT22;8791;50.876;4.342;2024-01-06T09:16:46;5.60;99.90
17348;DHT22;8791;50.876;4.342;2024-01-06T09:19:13;5.60;99.90
17348;DHT22;8791;50.876;4.342;2024-01-06T09:21:40;5.70;99.90
17348;DHT22;8791;50.876;4.342;2024-01-06T09:24:07;5.70;99.90
17348;DHT22;8791;50.876;4.342;2024-01-06T09:26:35;5.80;99.90
17348;DHT22;8791;50.876;4.342;2024-01-06T09:29:01;5.90;99.90
17348;DHT22;8791;50.876;4.342;2024-01-06T09:31:29;5.60;99.90
17348;DHT22;8791;50.876;4.342;2024-01-06T09:34:00;5.50;99.90
17348;DHT22;8791;50.876;4.342;2024-01-06T09:36:28;5.40;99.90
17348;DHT22;8791;50.876;4.342;2024-01-06T09:38:55;5.40;99.90
17348;DHT22;8791;50.876;4.342;2024-01-06T09:41:22;5.40;99.90
17348;DHT22;8791;50.876;4.342;2024-01-06T09:43:50;5.40;99.90
17348;DHT22;8791;50.876;4.342;2024-01-06T09:46:23;5.50;99.90
17348;DHT22;8791;50.876;4.342;2024-01-06T09:48:51;5.50;99.90
17348;DHT22;8791;50.876;4.342;2024-01-06T09:51:21;5.60;99.90
17348;DHT22;8791;50.876;4.342;2024-01-06T09:53:56;5.60;99.90
17348;DHT22;8791;50.876;4.342;2024-01-06T09:56:24;5.60;99.90
17348;DHT22;8791;50.876;4.342;2024-01-06T09:58:52;5.70;99.90
17348;DHT22;8791;50.876;4.342;2024-01-06T10:01:19;5.70;99.90
17348;DHT22;8791;50.876;4.342;2024-01-06T10:03:46;5.50;99.90
17348;DHT22;8791;50.876;4.342;2024-01-06T10:06:14;5.60;99.90
17348;DHT22;8791;50.876;4.342;2024-01-06T10:08:44;5.60;99.90
17348;DHT22;8791;50.876;4.342;2024-01-06T10:11:11;5.60;99.90
17348;DHT22;8791;50.876;4.342;2024-01-06T10:13:38;5.50;99.90
17348;DHT22;8791;50.876;4.342;2024-01-06T10:16:05;5.50;99.90
17348;DHT22;8791;50.876;4.342;2024-01-06T10:18:33;5.40;99.90
17348;DHT22;8791;50.876;4.342;2024-01-06T10:21:03;5.50;99.90
17348;DHT22;8791;50.876;4.342;2024-01-06T10:23:32;5.50;99.90
17348;DHT22;8791;50.876;4.342;2024-01-06T10:26:00;5.30;99.90
17348;DHT22;8791;50.876;4.342;2024-01-06T10:28:28;5.40;99.90
17348;DHT22;8791;50.876;4.342;2024-01-06T10:30:56;5.40;99.90
17348;DHT22;8791;50.876;4.342;2024-01-06T10:33:24;5.40;99.90
17348;DHT22;8791;50.876;4.342;2024-01-06T10:35:52;5.50;99.90
17348;DHT22;8791;50.876;4.342;2024-01-06T10:38:20;5.40;99.90
17348;DHT22;8791;50.876;4.342;2024-01-06T10:40:57;5.50;99.90
17348;DHT22;8791;50.876;4.342;2024-01-06T10:43:27;5.60;99.90
17348;DHT22;8791;50.876;4.342;2024-01-06T10:45:56;5.50;99.90
17348;DHT22;8791;50.876;4.342;2024-01-06T10:48:24;5.40;99.90
17348;DHT22;8791;50.876;4.342;2024-01-06T10:50:52;5.50;99.90
17348;DHT22;8791;50.876;4.342;2024-01-06T10:53:21;5.60;99.90
17348;DHT22;8791;50.876;4.342;2024-01-06T10:55:49;5.70;99.90
17348;DHT22;8791;50.876;4.342;2024-01-06T10:58:18;5.70;99.90
17348;DHT22;8791;50.876;4.342;2024-01-06T11:00:47;5.60;99.90
17348;DHT22;8791;50.876;4.342;2024-01-06T11:03:14;5.60;99.90
17348;DHT22;8791;50.876;4.342;2024-01-06T11:05:42;5.40;99.90
17348;DHT22;8791;50.876;4.342;2024-01-06T11:08:10;5.50;99.90
17348;DHT22;8791;50.876;4.342;2024-01-06T11:10:39;5.50;99.90
17348;DHT22;8791;50.876;4.342;2024-01-06T11:13:09;5.50;99.90
17348;DHT22;8791;50.876;4.342;2024-01-06T11:15:41;5.40;99.90
17348;DHT22;8791;50.876;4.342;2024-01-06T11:18:30;5.40;99.90
17348;DHT22;8791;50.876;4.342;2024-01-06T11:21:19;5.50;99.90
17348;DHT22;8791;50.876;4.342;2024-01-06T11:24:20;5.40;99.90
17348;DHT22;8791;50.876;4.342;2024-01-06T11:26:51;5.40;99.90
17348;DHT22;8791;50.876;4.342;2024-01-06T11:29:19;5.50;99.90
17348;DHT22;8791;50.876;4.342;2024-01-06T11:32:18;5.50;99.90
17348;DHT22;8791;50.876;4.342;2024-01-06T11:34:51;5.70;99.90
17348;DHT22;8791;50.876;4.342;2024-01-06T11:37:25;5.70;99.90
17348;DHT22;8791;50.876;4.342;2024-01-06T11:39:52;5.40;99.90
17348;DHT22;8791;50.876;4.342;2024-01-06T11:42:19;5.60;99.90
17348;DHT22;8791;50.876;4.342;2024-01-06T11:44:51;5.50;99.90
17348;DHT22;8791;50.876;4.342;2024-01-06T11:47:18;5.40;99.90
17348;DHT22;8791;50.876;4.342;2024-01-06T11:49:55;5.40;99.90
17348;DHT22;8791;50.876;4.342;2024-01-06T11:52:23;5.40;99.90
17348;DHT22;8791;50.876;4.342;2024-01-06T11:54:52;5.40;99.90
17348;DHT22;8791;50.876;4.342;2024-01-06T11:57:20;5.40;99.90
17348;DHT22;8791;50.876;4.342;2024-01-06T11:59:48;5.50;99.90
17348;DHT22;8791;50.876;4.342;2024-01-06T12:02:19;5.30;99.90
17348;DHT22;8791;50.876;4.342;2024-01-06T12:04:49;5.40;99.90
17348;DHT22;8791;50.876;4.342;2024-01-06T12:07:18;5.40;99.90
17348;DHT22;8791;50.876;4.342;2024-01-06T12:09:47;5.40;99.90
17348;DHT22;8791;50.876;4.342;2024-01-06T12:12:15;5.40;99.90
17348;DHT22;8791;50.876;4.342;2024-01-06T12:14:43;5.50;99.90
17348;DHT22;8791;50.876;4.342;2024-01-06T12:17:11;5.50;99.90
17348;DHT22;8791;50.876;4.342;2024-01-06T12:19:39;5.30;99.90
17348;DHT22;8791;50.876;4.342;2024-01-06T12:22:09;5.20;99.90
17348;DHT22;8791;50.876;4.342;2024-01-06T12:24:38;5.30;99.90
17348;DHT22;8791;50.876;4.342;2024-01-06T12:27:07;5.40;99.90
17348;DHT22;8791;50.876;4.342;2024-01-06T12:29:37;5.30;99.90
17348;DHT22;8791;50.876;4.342;2024-01-06T12:32:05;5.40;99.90
17348;DHT22;8791;50.876;4.342;2024-01-06T12:34:33;5.50;99.90
17348;DHT22;8791;50.876;4.342;2024-01-06T12:37:00;5.40;99.90
17348;DHT22;8791;50.876;4.342;2024-01-06T12:39:32;5.30;99.90
17348;DHT22;8791;50.876;4.342;2024-01-06T12:42:01;5.10;99.90
17348;DHT22;8791;50.876;4.342;2024-01-06T12:44:28;5.20;99.90
17348;DHT22;8791;50.876;4.342;2024-01-06T12:46:58;5.20;99.90
17348;DHT22;8791;50.876;4.342;2024-01-06T12:49:25;5.30;99.90
17348;DHT22;8791;50.876;4.342;2024-01-06T12:51:52;5.40;99.90
17348;DHT22;8791;50.876;4.342;2024-01-06T12:54:19;5.40;99.90
17348;DHT22;8791;50.876;4.342;2024-01-06T12:56:47;5.20;99.90
17348;DHT22;8791;50.876;4.342;2024-01-06T12:59:16;5.20;99.90
17348;DHT22;8791;50.876;4.342;2024-01-06T13:01:44;5.40;99.90
17348;DHT22;8791;50.876;4.342;2024-01-06T13:04:11;5.30;99.90
17348;DHT22;8791;50.876;4.342;2024-01-06T13:06:39;5.50;99.90
17348;DHT22;8791;50.876;4.342;2024-01-06T13:09:08;5.60;99.90
17348;DHT22;8791;50.876;4.342;2024-01-06T13:11:38;5.50;99.90
17348;DHT22;8791;50.876;4.342;2024-01-06T13:14:05;5.40;99.90
17348;DHT22;8791;50.876;4.342;2024-01-06T13:16:35;5.50;99.90
17348;DHT22;8791;50.876;4.342;2024-01-06T13:19:02;5.40;99.90
17348;DHT22;8791;50.876;4.342;2024-01-06T13:21:30;5.50;99.90
17348;DHT22;8791;50.876;4.342;2024-01-06T13:23:57;5.60;99.90
17348;DHT22;8791;50.876;4.342;2024-01-06T13:26:27;5.60;99.90
17348;DHT22;8791;50.876;4.342;2024-01-06T13:28:54;5.70;99.90
17348;DHT22;8791;50.876;4.342;2024-01-06T13:31:21;5.70;99.90
17348;DHT22;8791;50.876;4.342;2024-01-06T13:33:50;5.60;99.90
17348;DHT22;8791;50.876;4.342;2024-01-06T13:36:20;5.80;99.90
17348;DHT22;8791;50.876;4.342;2024-01-06T13:38:47;5.80;99.90
17348;DHT22;8791;50.876;4.342;2024-01-06T13:41:14;5.80;99.90
17348;DHT22;8791;50.876;4.342;2024-01-06T13:43:41;5.80;99.90
17348;DHT22;8791;50.876;4.342;2024-01-06T13:46:09;5.90;99.90
17348;DHT22;8791;50.876;4.342;2024-01-06T13:48:36;5.80;99.90
17348;DHT22;8791;50.876;4.342;2024-01-06T13:51:05;5.80;99.90
17348;DHT22;8791;50.876;4.342;2024-01-06T13:53:34;5.80;99.90
17348;DHT22;8791;50.876;4.342;2024-01-06T13:56:01;5.80;99.90
17348;DHT22;8791;50.876;4.342;2024-01-06T13:58:29;5.60;99.90
17348;DHT22;8791;50.876;4.342;2024-01-06T14:00:56;5.40;99.90
17348;DHT22;8791;50.876;4.342;2024-01-06T14:03:23;5.50;99.90
17348;DHT22;8791;50.876;4.342;2024-01-06T14:05:50;5.50;99.90
17348;DHT22;8791;50.876;4.342;2024-01-06T14:08:20;5.50;99.90
17348;DHT22;8791;50.876;4.342;2024-01-06T14:10:47;5.40;99.90
17348;DHT22;8791;50.876;4.342;2024-01-06T14:13:14;5.30;99.90
17348;DHT22;8791;50.876;4.342;2024-01-06T14:15:41;5.50;99.90
17348;DHT22;8791;50.876;4.342;2024-01-06T14:18:08;5.50;99.90
17348;DHT22;8791;50.876;4.342;2024-01-06T14:20:36;5.60;99.90
17348;DHT22;8791;50.876;4.342;2024-01-06T14:23:04;5.60;99.90
17348;DHT22;8791;50.876;4.342;2024-01-06T14:25:32;5.40;99.90
17348;DHT22;8791;50.876;4.342;2024-01-06T14:28:00;5.50;99.90
17348;DHT22;8791;50.876;4.342;2024-01-06T14:30:27;5.40;99.90
17348;DHT22;8791;50.876;4.342;2024-01-06T14:32:56;5.30;99.90
17348;DHT22;8791;50.876;4.342;2024-01-06T14:35:22;5.50;99.90
17348;DHT22;8791;50.876;4.342;2024-01-06T14:37:49;5.60;99.90
17348;DHT22;8791;50.876;4.342;2024-01-06T14:40:18;5.60;99.90
17348;DHT22;8791;50.876;4.342;2024-01-06T14:42:46;5.80;99.90
17348;DHT22;8791;50.876;4.342;2024-01-06T14:45:14;5.70;99.90
17348;DHT22;8791;50.876;4.342;2024-01-06T14:47:41;5.50;99.90
17348;DHT22;8791;50.876;4.342;2024-01-06T14:50:08;5.70;99.90
17348;DHT22;8791;50.876;4.342;2024-01-06T14:52:35;5.50;99.90
17348;DHT22;8791;50.876;4.342;2024-01-06T14:55:02;5.50;99.90
17348;DHT22;8791;50.876;4.342;2024-01-06T14:57:29;5.50;99.90
17348;DHT22;8791;50.876;4.342;2024-01-06T14:59:58;5.40;99.90
17348;DHT22;8791;50.876;4.342;2024-01-06T15:02:25;5.30;99.90
17348;DHT22;8791;50.876;4.342;2024-01-06T15:04:52;5.30;99.90
17348;DHT22;8791;50.876;4.342;2024-01-06T15:07:22;5.30;99.90
17348;DHT22;8791;50.876;4.342;2024-01-06T15:09:49;5.40;99.90
17348;DHT22;8791;50.876;4.342;2024-01-06T15:12:16;5.40;99.90
17348;DHT22;8791;50.876;4.342;2024-01-06T15:14:43;5.10;99.90
17348;DHT22;8791;50.876;4.342;2024-01-06T15:17:14;5.10;99.90
17348;DHT22;8791;50.876;4.342;2024-01-06T15:19:44;5.20;99.90
17348;DHT22;8791;50.876;4.342;2024-01-06T15:22:11;5.10;99.90
17348;DHT22;8791;50.876;4.342;2024-01-06T15:24:39;5.30;99.90
17348;DHT22;8791;50.876;4.342;2024-01-06T15:27:06;5.20;99.90
17348;DHT22;8791;50.876;4.342;2024-01-06T15:29:33;5.40;99.90
17348;DHT22;8791;50.876;4.342;2024-01-06T15:32:00;5.40;99.90
17348;DHT22;8791;50.876;4.342;2024-01-06T15:34:28;5.50;99.90
17348;DHT22;8791;50.876;4.342;2024-01-06T15:36:55;5.50;99.90
17348;DHT22;8791;50.876;4.342;2024-01-06T15:39:22;5.70;99.90
17348;DHT22;8791;50.876;4.342;2024-01-06T15:41:50;5.80;99.90
17348;DHT22;8791;50.876;4.342;2024-01-06T15:44:17;5.70;99.90
17348;DHT22;8791;50.876;4.342;2024-01-06T15:46:44;5.60;99.90
17348;DHT22;8791;50.876;4.342;2024-01-06T15:49:11;5.60;99.90
17348;DHT22;8791;50.876;4.342;2024-01-06T15:51:39;5.50;99.90
17348;DHT22;8791;50.876;4.342;2024-01-06T15:54:07;5.40;99.90
17348;DHT22;8791;50.876;4.342;2024-01-06T15:56:34;5.40;99.90
17348;DHT22;8791;50.876;4.342;2024-01-06T15:59:01;5.40;99.90
17348;DHT22;8791;50.876;4.342;2024-01-06T16:01:28;5.40;99.90
17348;DHT22;8791;50.876;4.342;2024-01-06T16:03:57;5.40;99.90
17348;DHT22;8791;50.876;4.342;2024-01-06T16:06:30;5.30;99.90